createdAt,value
2023-03-21T00:03:49.158Z,8.93
2023-03-21T00:06:16.666Z,9.16
2023-03-21T00:08:44.615Z,9.20
2023-03-21T00:11:12.961Z,8.96
2023-03-21T00:16:45.740Z,8.81
2023-03-21T00:19:15.851Z,8.95
2023-03-21T00:22:03.262Z,9.22
2023-03-21T00:24:31.728Z,8.99
2023-03-21T00:27:10.751Z,9.17
2023-03-21T00:29:46.739Z,9.02
2023-03-21T00:32:14.172Z,8.89
2023-03-21T00:34:57.667Z,9.01
2023-03-21T00:37:29.930Z,9.08
2023-03-21T00:39:57.432Z,9.04
2023-03-21T00:42:24.964Z,8.80
2023-03-21T00:44:52.428Z,8.95
2023-03-21T00:47:19.941Z,8.90
2023-03-21T00:52:40.941Z,8.91
2023-03-21T00:55:12.212Z,9.02
2023-03-21T00:57:39.925Z,8.68
2023-03-21T01:00:10.189Z,8.55
2023-03-21T01:02:37.852Z,8.81
2023-03-21T01:05:05.799Z,8.61
2023-03-21T01:07:33.249Z,8.60
2023-03-21T01:10:02.077Z,8.67
2023-03-21T01:12:29.515Z,8.74
2023-03-21T01:14:57.615Z,8.75
2023-03-21T01:20:27.639Z,8.61
2023-03-21T01:22:55.102Z,8.52
2023-03-21T01:25:23.886Z,8.60
2023-03-21T01:27:51.338Z,8.33
2023-03-21T01:30:22.834Z,8.62
2023-03-21T01:32:51.405Z,8.74
2023-03-21T01:35:18.843Z,8.74
2023-03-21T01:40:51.038Z,8.65
2023-03-21T01:43:26.567Z,8.58
2023-03-21T01:46:21.205Z,8.89
2023-03-21T01:49:04.660Z,8.68
2023-03-21T01:51:35.079Z,8.75
2023-03-21T01:54:03.643Z,8.86
2023-03-21T01:56:36.387Z,8.81
2023-03-21T02:02:23.068Z,8.79
2023-03-21T02:08:13.123Z,8.83
2023-03-21T02:10:44.330Z,8.78
2023-03-21T02:13:15.897Z,8.67
2023-03-21T02:15:48.130Z,8.64
2023-03-21T02:18:28.224Z,8.63
2023-03-21T02:24:25.787Z,8.69
2023-03-21T02:27:03.871Z,8.66
2023-03-21T02:30:05.514Z,8.52
2023-03-21T02:32:43.998Z,8.53
2023-03-21T02:35:26.050Z,8.58
2023-03-21T02:38:00.532Z,8.54
2023-03-21T02:40:34.028Z,8.69
2023-03-21T02:43:11.613Z,8.54
2023-03-21T02:45:48.647Z,8.63
2023-03-21T02:48:29.219Z,8.46
2023-03-21T02:51:00.166Z,8.60
2023-03-21T02:56:19.964Z,8.22
2023-03-21T02:58:53.448Z,8.52
2023-03-21T03:01:21.958Z,8.40
2023-03-21T03:03:49.919Z,8.58
2023-03-21T03:09:16.747Z,8.49
2023-03-21T03:11:45.777Z,8.51
2023-03-21T03:14:56.482Z,8.58
2023-03-21T03:17:39.193Z,8.42
2023-03-21T03:23:02.016Z,8.54
2023-03-21T03:25:42.055Z,8.50
2023-03-21T03:28:16.506Z,8.69
2023-03-21T03:30:54.243Z,8.57
2023-03-21T03:33:31.749Z,8.64
2023-03-21T03:36:05.520Z,8.51
2023-03-21T03:38:36.527Z,8.60
2023-03-21T03:43:56.742Z,8.40
2023-03-21T03:46:31.991Z,8.32
2023-03-21T03:49:02.525Z,8.49
2023-03-21T03:51:33.660Z,8.58
2023-03-21T03:57:13.880Z,8.47
2023-03-21T03:59:44.850Z,8.70
2023-03-21T04:02:22.189Z,8.58
2023-03-21T04:04:52.847Z,8.40
2023-03-21T04:07:21.350Z,8.50
2023-03-21T04:09:50.291Z,8.45
2023-03-21T04:15:34.037Z,8.55
2023-03-21T04:20:57.991Z,8.66
2023-03-21T04:23:29.899Z,8.68
2023-03-21T04:25:57.607Z,8.69
2023-03-21T04:28:37.204Z,8.97
2023-03-21T04:31:35.900Z,8.64
2023-03-21T04:34:12.260Z,9.01
2023-03-21T04:39:47.507Z,9.02
2023-03-21T04:42:15.572Z,8.72
2023-03-21T04:44:43.066Z,8.92
2023-03-21T04:47:13.153Z,8.75
2023-03-21T04:49:40.627Z,9.00
2023-03-21T04:55:10.115Z,8.92
2023-03-21T04:57:39.628Z,8.65
2023-03-21T05:00:13.586Z,8.60
2023-03-21T05:02:42.467Z,8.68
2023-03-21T05:05:11.976Z,8.57
2023-03-21T05:07:39.949Z,8.57
2023-03-21T05:10:10.050Z,8.82
2023-03-21T05:12:39.877Z,8.73
2023-03-21T05:15:08.917Z,8.74
2023-03-21T05:17:37.484Z,8.87
2023-03-21T05:20:09.585Z,8.77
2023-03-21T05:22:40.755Z,8.76
2023-03-21T05:25:12.169Z,8.82
2023-03-21T05:28:01.911Z,8.93
2023-03-21T05:33:19.566Z,9.21
2023-03-21T05:35:51.162Z,8.92
2023-03-21T05:38:18.791Z,9.02
2023-03-21T05:40:52.349Z,9.08
2023-03-21T05:43:19.927Z,9.00
2023-03-21T05:45:48.963Z,8.95
2023-03-21T05:48:18.456Z,9.12
2023-03-21T05:54:16.548Z,9.12
2023-03-21T05:59:52.659Z,9.51
2023-03-21T06:02:20.910Z,9.63
2023-03-21T06:04:49.590Z,9.72
2023-03-21T06:07:18.261Z,9.50
2023-03-21T06:09:47.022Z,9.83
2023-03-21T06:15:12.453Z,9.91
2023-03-21T06:17:53.922Z,10.10
2023-03-21T06:20:21.645Z,10.43
2023-03-21T06:22:53.407Z,10.67
2023-03-21T06:25:22.187Z,10.84
2023-03-21T06:27:49.849Z,10.58
2023-03-21T06:33:17.631Z,10.57
2023-03-21T06:35:45.681Z,10.26
2023-03-21T06:41:17.907Z,10.44
2023-03-21T06:43:54.362Z,10.70
2023-03-21T06:46:22.180Z,10.52
2023-03-21T06:48:49.787Z,10.44
2023-03-21T06:54:17.628Z,10.55
2023-03-21T06:56:59.899Z,10.63
2023-03-21T06:59:31.365Z,10.85
2023-03-21T07:02:02.470Z,10.59
2023-03-21T07:04:31.191Z,10.70
2023-03-21T07:06:59.049Z,10.93
2023-03-21T07:09:28.094Z,10.78
2023-03-21T07:11:59.708Z,10.94
2023-03-21T07:17:35.567Z,11.21
2023-03-21T07:20:04.551Z,11.30
2023-03-21T07:22:42.363Z,11.27
2023-03-21T07:25:10.827Z,11.44
2023-03-21T07:30:44.083Z,11.68
2023-03-21T07:33:11.755Z,11.79
2023-03-21T07:35:40.267Z,11.69
2023-03-21T07:38:08.048Z,11.57
2023-03-21T07:40:36.195Z,11.94
2023-03-21T07:43:04.141Z,11.81
2023-03-21T07:45:35.155Z,11.93
2023-03-21T07:48:04.204Z,11.75
2023-03-21T07:50:34.581Z,11.62
2023-03-21T07:53:02.684Z,11.96
2023-03-21T07:55:30.450Z,11.67
2023-03-21T07:57:58.338Z,12.29
2023-03-21T08:00:26.122Z,12.48
2023-03-21T08:02:58.553Z,12.67
2023-03-21T08:05:30.098Z,12.37
2023-03-21T08:07:57.986Z,12.33
2023-03-21T08:10:25.929Z,12.25
2023-03-21T08:12:53.562Z,12.05
2023-03-21T08:18:19.582Z,12.07
2023-03-21T08:20:52.918Z,12.24
2023-03-21T08:23:20.879Z,11.89
2023-03-21T08:25:52.675Z,11.46
2023-03-21T08:28:20.629Z,11.51
2023-03-21T08:30:48.384Z,11.59
2023-03-21T08:33:17.219Z,11.62
2023-03-21T08:38:49.012Z,11.34
2023-03-21T08:41:16.466Z,11.11
2023-03-21T08:46:46.582Z,11.26
2023-03-21T08:49:14.052Z,11.56
2023-03-21T08:51:41.489Z,11.38
2023-03-21T08:54:19.435Z,11.29
2023-03-21T08:56:46.930Z,11.21
2023-03-21T08:59:15.611Z,11.45
2023-03-21T09:04:31.829Z,11.82
2023-03-21T09:07:01.331Z,11.98
2023-03-21T09:09:30.124Z,11.74
2023-03-21T09:12:08.908Z,11.17
2023-03-21T09:14:36.448Z,11.45
2023-03-21T09:17:04.000Z,11.53
2023-03-21T09:19:31.960Z,11.57
2023-03-21T09:24:57.401Z,10.80
2023-03-21T09:27:28.012Z,10.62
2023-03-21T09:29:55.570Z,10.52
2023-03-21T09:32:23.550Z,10.52
2023-03-21T09:34:51.356Z,10.65
2023-03-21T09:37:18.795Z,10.42
2023-03-21T09:39:46.244Z,10.40
2023-03-21T09:42:26.558Z,10.26
2023-03-21T09:45:02.559Z,10.31
2023-03-21T09:47:32.992Z,10.18
2023-03-21T09:50:13.718Z,10.34
2023-03-21T09:52:47.975Z,10.87
2023-03-21T09:55:19.926Z,10.83
2023-03-21T09:57:51.581Z,11.27
2023-03-21T10:00:24.817Z,11.54
2023-03-21T10:03:03.001Z,11.17
2023-03-21T10:05:32.517Z,11.47
2023-03-21T10:08:04.675Z,11.32
2023-03-21T10:10:36.871Z,11.46
2023-03-21T10:13:06.320Z,11.58
2023-03-21T10:15:33.889Z,11.41
2023-03-21T10:18:02.785Z,11.45
2023-03-21T10:20:32.371Z,10.90
2023-03-21T10:23:01.176Z,11.05
2023-03-21T10:25:32.859Z,11.03
2023-03-21T10:28:01.106Z,11.17
2023-03-21T10:30:38.277Z,11.26
2023-03-21T10:33:09.482Z,11.28
2023-03-21T10:35:38.074Z,11.37
2023-03-21T10:41:08.567Z,11.45
2023-03-21T10:43:40.657Z,11.51
2023-03-21T10:46:13.680Z,11.03
2023-03-21T10:48:46.139Z,11.55
2023-03-21T10:51:18.396Z,11.50
2023-03-21T10:56:48.548Z,11.52
2023-03-21T10:59:20.580Z,11.12
2023-03-21T11:01:51.503Z,11.25
2023-03-21T11:04:21.917Z,11.53
2023-03-21T11:06:54.730Z,11.32
2023-03-21T11:09:24.886Z,11.13
2023-03-21T11:11:55.242Z,11.49
2023-03-21T11:17:30.277Z,11.45
2023-03-21T11:19:59.490Z,11.60
2023-03-21T11:22:29.885Z,11.46
2023-03-21T11:25:00.442Z,11.42
2023-03-21T11:27:30.040Z,11.22
2023-03-21T11:29:59.766Z,11.69
2023-03-21T11:32:34.781Z,11.72
2023-03-21T11:37:53.301Z,11.28
2023-03-21T11:40:23.163Z,11.64
2023-03-21T11:42:52.674Z,12.05
2023-03-21T11:45:21.950Z,12.24
2023-03-21T11:47:52.037Z,11.82
2023-03-21T11:50:21.972Z,11.86
2023-03-21T11:52:57.875Z,11.63
2023-03-21T11:55:41.734Z,11.72
2023-03-21T11:58:23.478Z,12.00
2023-03-21T12:00:57.151Z,11.92
2023-03-21T12:03:50.673Z,11.73
2023-03-21T12:06:23.976Z,11.13
2023-03-21T12:12:10.797Z,10.78
2023-03-21T12:17:46.247Z,10.90
2023-03-21T12:20:27.894Z,10.88
2023-03-21T12:23:03.586Z,11.19
2023-03-21T12:25:33.799Z,11.03
2023-03-21T12:28:09.625Z,10.83
2023-03-21T12:30:44.081Z,10.84
2023-03-21T12:33:19.648Z,10.90
2023-03-21T12:35:56.144Z,11.12
2023-03-21T12:38:26.029Z,11.13
2023-03-21T12:41:10.321Z,10.82
2023-03-21T12:43:43.345Z,11.04
2023-03-21T12:48:49.989Z,11.32
2023-03-21T12:51:20.847Z,11.33
2023-03-21T12:53:55.732Z,11.14
2023-03-21T12:56:25.499Z,11.03
2023-03-21T12:58:57.200Z,11.25
2023-03-21T13:04:33.274Z,11.56
2023-03-21T13:07:04.784Z,11.42
2023-03-21T13:09:38.049Z,11.41
2023-03-21T13:12:16.938Z,11.20
2023-03-21T13:14:48.647Z,11.30
2023-03-21T13:17:23.290Z,11.56
2023-03-21T13:19:55.572Z,11.58
2023-03-21T13:22:26.960Z,11.39
2023-03-21T13:24:59.046Z,11.51
2023-03-21T13:27:29.407Z,11.68
2023-03-21T13:30:00.920Z,11.84
2023-03-21T13:32:30.669Z,12.45
2023-03-21T13:35:00.998Z,12.47
2023-03-21T13:37:33.099Z,12.13
2023-03-21T13:40:02.270Z,12.03
2023-03-21T13:42:33.376Z,11.88
2023-03-21T13:45:02.718Z,12.15
2023-03-21T13:47:37.159Z,12.12
2023-03-21T13:50:34.934Z,12.35
2023-03-21T13:53:21.103Z,12.17
2023-03-21T13:55:59.605Z,11.91
2023-03-21T13:58:35.139Z,12.36
2023-03-21T14:01:24.004Z,12.79
2023-03-21T14:03:59.155Z,12.86
2023-03-21T14:06:33.015Z,12.30
2023-03-21T14:09:02.239Z,12.58
2023-03-21T14:11:30.866Z,12.48
2023-03-21T14:14:00.291Z,12.50
2023-03-21T14:16:29.322Z,12.76
2023-03-21T14:18:58.521Z,12.81
2023-03-21T14:21:28.035Z,13.04
2023-03-21T14:24:00.219Z,12.66
2023-03-21T14:26:32.280Z,12.65
2023-03-21T14:29:00.360Z,12.78
2023-03-21T14:31:28.015Z,12.75
2023-03-21T14:36:51.729Z,12.43
2023-03-21T14:39:27.270Z,12.52
2023-03-21T14:41:57.820Z,12.35
2023-03-21T14:44:27.561Z,12.44
2023-03-21T14:47:01.370Z,12.21
2023-03-21T14:49:54.133Z,12.29
2023-03-21T14:52:24.927Z,12.18
2023-03-21T14:57:42.004Z,12.10
2023-03-21T15:00:16.836Z,12.11
2023-03-21T15:02:45.850Z,12.15
2023-03-21T15:05:18.327Z,12.06
2023-03-21T15:07:53.907Z,12.11
2023-03-21T15:10:21.662Z,11.98
2023-03-21T15:12:55.676Z,12.06
2023-03-21T15:15:27.342Z,11.97
2023-03-21T15:17:56.840Z,11.64
2023-03-21T15:20:27.791Z,11.63
2023-03-21T15:26:07.856Z,11.83
2023-03-21T15:28:37.081Z,11.58
2023-03-21T15:31:05.485Z,11.84
2023-03-21T15:33:33.086Z,11.65
2023-03-21T15:36:00.989Z,11.71
2023-03-21T15:38:33.176Z,11.57
2023-03-21T15:41:17.788Z,11.84
2023-03-21T15:43:46.714Z,11.76
2023-03-21T15:46:15.646Z,11.73
2023-03-21T15:48:43.128Z,11.76
2023-03-21T15:51:16.624Z,11.35
2023-03-21T15:53:44.562Z,11.15
2023-03-21T15:56:15.943Z,11.19
2023-03-21T15:58:46.958Z,11.35
2023-03-21T16:01:17.064Z,11.49
2023-03-21T16:03:47.024Z,11.47
2023-03-21T16:06:19.782Z,11.34
2023-03-21T16:08:48.937Z,11.34
2023-03-21T16:11:24.517Z,11.44
2023-03-21T16:13:55.262Z,11.30
2023-03-21T16:16:24.823Z,11.17
2023-03-21T16:18:53.433Z,11.12
2023-03-21T16:21:22.517Z,11.19
2023-03-21T16:26:42.496Z,11.07
2023-03-21T16:29:13.783Z,11.21
2023-03-21T16:31:41.329Z,11.20
2023-03-21T16:34:08.849Z,11.17
2023-03-21T16:36:38.333Z,11.18
2023-03-21T16:42:10.600Z,11.17
2023-03-21T16:44:40.127Z,11.40
2023-03-21T16:47:15.502Z,11.53
2023-03-21T16:49:43.026Z,11.29
2023-03-21T16:54:58.622Z,11.70
2023-03-21T17:00:30.742Z,11.48
2023-03-21T17:03:01.768Z,11.18
2023-03-21T17:05:31.139Z,11.25
2023-03-21T17:08:01.946Z,11.03
2023-03-21T17:13:27.620Z,10.95
2023-03-21T17:15:59.059Z,11.10
2023-03-21T17:18:26.528Z,11.01
2023-03-21T17:20:53.987Z,10.88
2023-03-21T17:26:10.605Z,10.88
2023-03-21T17:28:38.302Z,11.01
2023-03-21T17:31:08.030Z,10.71
2023-03-21T17:33:35.579Z,10.68
2023-03-21T17:38:52.719Z,10.71
2023-03-21T17:41:20.827Z,10.54
2023-03-21T17:43:48.819Z,10.59
2023-03-21T17:46:19.237Z,10.61
2023-03-21T17:51:46.802Z,10.49
2023-03-21T17:54:14.275Z,10.68
2023-03-21T17:56:42.003Z,10.58
2023-03-21T17:59:13.607Z,10.63
2023-03-21T18:04:41.045Z,10.45
2023-03-21T18:07:14.010Z,10.54
2023-03-21T18:10:14.434Z,10.49
2023-03-21T18:12:41.953Z,10.57
2023-03-21T18:15:14.243Z,10.72
2023-03-21T18:17:42.858Z,10.55
2023-03-21T18:20:14.796Z,10.63
2023-03-21T18:22:43.664Z,10.52
2023-03-21T18:25:11.611Z,10.51
2023-03-21T18:28:02.090Z,10.65
2023-03-21T18:33:28.111Z,10.56
2023-03-21T18:36:00.440Z,10.68
2023-03-21T18:41:23.602Z,10.53
2023-03-21T18:44:15.397Z,10.66
2023-03-21T18:46:40.342Z,10.70
2023-03-21T18:49:51.999Z,10.64
2023-03-21T18:54:55.941Z,10.81
2023-03-21T18:57:39.372Z,10.91
2023-03-21T19:00:12.432Z,10.83
2023-03-21T19:02:45.628Z,10.64
2023-03-21T19:05:14.694Z,10.62
2023-03-21T19:07:42.267Z,10.71
2023-03-21T19:10:17.950Z,10.78
2023-03-21T19:15:35.244Z,10.71
2023-03-21T19:20:53.494Z,10.59
2023-03-21T19:23:21.922Z,10.64
2023-03-21T19:25:50.664Z,10.81
2023-03-21T19:28:18.086Z,10.82
2023-03-21T19:30:50.214Z,10.86
2023-03-21T19:36:22.775Z,10.81
2023-03-21T19:41:50.314Z,10.94
2023-03-21T19:44:17.999Z,10.88
2023-03-21T19:46:48.265Z,10.78
2023-03-21T19:49:19.854Z,10.86
2023-03-21T19:51:47.503Z,10.53
2023-03-21T19:54:17.184Z,10.33
2023-03-21T19:56:47.644Z,10.25
2023-03-21T20:02:35.126Z,10.10
2023-03-21T20:05:05.356Z,10.02
2023-03-21T20:07:33.148Z,9.95
2023-03-21T20:10:01.061Z,9.97
2023-03-21T20:12:53.646Z,9.82
2023-03-21T20:15:22.155Z,9.81
2023-03-21T20:17:53.556Z,9.78
2023-03-21T20:23:20.958Z,9.36
2023-03-21T20:25:49.000Z,9.41
2023-03-21T20:28:25.802Z,9.39
2023-03-21T20:30:58.574Z,9.36
2023-03-21T20:33:27.919Z,9.48
2023-03-21T20:38:49.906Z,9.61
2023-03-21T20:41:17.385Z,9.79
2023-03-21T20:44:34.313Z,9.92
2023-03-21T20:49:16.505Z,10.03
2023-03-21T20:54:32.118Z,9.74
2023-03-21T20:56:59.559Z,9.56
2023-03-21T21:02:26.418Z,9.66
2023-03-21T21:05:24.182Z,9.74
2023-03-21T21:07:43.381Z,9.88
2023-03-21T21:10:14.127Z,9.75
2023-03-21T21:13:13.578Z,9.96
2023-03-21T21:15:41.051Z,9.97
2023-03-21T21:18:09.820Z,9.93
2023-03-21T21:20:39.252Z,10.00
2023-03-21T21:23:09.509Z,9.81
2023-03-21T21:25:37.340Z,9.85
2023-03-21T21:28:28.732Z,9.91
2023-03-21T21:30:58.237Z,9.98
2023-03-21T21:36:16.079Z,10.28
2023-03-21T21:38:43.603Z,10.04
2023-03-21T21:41:17.477Z,10.07
2023-03-21T21:43:44.996Z,10.12
2023-03-21T21:46:12.536Z,10.21
2023-03-21T21:51:30.175Z,10.06
2023-03-21T21:53:57.693Z,10.02
2023-03-21T21:56:32.362Z,9.94
2023-03-21T21:59:01.995Z,10.05
2023-03-21T22:01:30.919Z,9.94
2023-03-21T22:04:06.013Z,9.95
2023-03-21T22:06:35.234Z,10.06
2023-03-21T22:09:03.859Z,10.11
2023-03-21T22:14:29.595Z,10.28
2023-03-21T22:16:58.057Z,10.23
2023-03-21T22:19:25.794Z,10.20
2023-03-21T22:24:57.103Z,10.27
2023-03-21T22:27:24.644Z,10.19
2023-03-21T22:29:52.085Z,10.15
2023-03-21T22:32:20.576Z,10.04
2023-03-21T22:34:48.053Z,10.18
2023-03-21T22:37:15.656Z,9.91
2023-03-21T22:39:43.388Z,9.92
2023-03-21T22:42:12.155Z,9.98
2023-03-21T22:44:39.562Z,9.95
2023-03-21T22:47:08.746Z,9.86
2023-03-21T22:49:36.399Z,9.96
2023-03-21T22:52:05.519Z,9.79
2023-03-21T22:57:36.946Z,9.92
2023-03-21T23:00:12.833Z,9.97
2023-03-21T23:02:40.596Z,9.73
2023-03-21T23:05:08.747Z,9.70
2023-03-21T23:07:36.280Z,9.80
2023-03-21T23:10:05.036Z,9.74
2023-03-21T23:15:46.050Z,9.63
2023-03-21T23:18:13.531Z,9.66
2023-03-21T23:20:41.512Z,9.67
2023-03-21T23:23:09.227Z,9.78
2023-03-21T23:25:37.762Z,9.85
2023-03-21T23:28:07.256Z,10.00
2023-03-21T23:30:34.720Z,9.85
2023-03-21T23:33:03.477Z,10.01
2023-03-21T23:35:35.288Z,9.74
2023-03-21T23:38:02.959Z,9.82
2023-03-21T23:43:32.642Z,9.66
2023-03-21T23:46:00.305Z,9.63
2023-03-21T23:48:29.440Z,9.80
2023-03-21T23:50:57.331Z,9.84
2023-03-21T23:53:25.074Z,10.04
2023-03-21T23:55:52.617Z,10.05
2023-03-21T23:58:20.379Z,10.02
